Time;durP1;ratioP1;P1;durP2;ratioP2;P2;SDS_P1;SDS_P2;PMS_P1;PMS_P2;Temp;Humidity;BMP_temperature;BMP_pressure;BME280_temperature;BME280_humidity;BME280_pressure;Samples;Min_cycle;Max_cycle;Signal;HPM_P1;HPM_P2
2023/10/14 00:03:43;;;;;;;6.40;2.53;;;16.90;1.00;;;;;;8403816;28;20207;-67
2023/10/14 00:07:45;;;;;;;6.83;2.57;;;16.80;1.00;;;;;;8403804;28;20196;-68
2023/10/14 00:11:56;;;;;;;4.30;2.70;;;16.80;1.00;;;;;;8402033;28;20185;-67
2023/10/14 00:16:07;;;;;;;5.93;2.60;;;16.80;1.00;;;;;;8402290;28;20205;-65
2023/10/14 00:20:10;;;;;;;6.60;2.57;;;16.80;1.00;;;;;;8401009;28;20187;-67
2023/10/14 00:24:16;;;;;;;7.17;2.60;;;16.90;1.00;;;;;;8401230;28;20624;-66
2023/10/14 00:28:19;;;;;;;8.27;3.03;;;16.90;1.00;;;;;;8400397;28;20189;-65
2023/10/14 00:32:20;;;;;;;5.27;2.80;;;16.90;1.00;;;;;;8401325;28;20398;-61
2023/10/14 00:36:22;;;;;;;8.27;2.70;;;17.00;1.00;;;;;;8402749;28;20212;-64
2023/10/14 00:40:23;;;;;;;10.10;2.93;;;17.10;1.00;;;;;;8399341;28;20185;-62
2023/10/14 00:44:28;;;;;;;9.00;3.00;;;17.20;1.00;;;;;;8401620;28;20173;-64
2023/10/14 00:48:29;;;;;;;5.57;2.23;;;17.30;1.00;;;;;;8400150;28;20180;-64
2023/10/14 00:52:30;;;;;;;5.53;2.77;;;17.40;1.00;;;;;;8397030;28;20204;-62
2023/10/14 00:56:31;;;;;;;4.00;2.47;;;17.30;1.00;;;;;;8403993;28;20276;-63
2023/10/14 01:00:37;;;;;;;6.30;2.60;;;17.30;1.00;;;;;;8403895;28;20352;-62
2023/10/14 01:04:40;;;;;;;6.93;2.70;;;17.30;1.00;;;;;;8402343;28;20189;-64
2023/10/14 01:08:43;;;;;;;10.63;3.40;;;17.30;1.00;;;;;;8398798;28;20270;-66
2023/10/14 01:12:45;;;;;;;5.70;2.40;;;17.30;1.00;;;;;;8398062;28;20184;-62
2023/10/14 01:16:47;;;;;;;5.27;2.30;;;17.30;1.00;;;;;;8403236;28;20201;-63
2023/10/14 01:20:47;;;;;;;6.40;2.33;;;17.40;1.00;;;;;;8399189;28;20469;-62
2023/10/14 01:24:48;;;;;;;4.33;2.23;;;17.40;1.00;;;;;;8403924;28;20187;-64
2023/10/14 01:28:58;;;;;;;5.27;2.50;;;17.30;1.00;;;;;;8403141;28;20230;-63
2023/10/14 01:33:24;;;;;;;6.83;2.90;;;17.40;1.00;;;;;;8401365;28;20277;-62
2023/10/14 01:37:20;;;;;;;8.83;2.90;;;17.40;1.00;;;;;;8402043;28;20332;-66
2023/10/14 01:41:21;;;;;;;7.73;2.93;;;17.60;1.00;;;;;;8401841;28;20184;-63
2023/10/14 01:45:39;;;;;;;5.90;2.57;;;17.60;1.00;;;;;;8402009;27;20272;-62
2023/10/14 01:49:40;;;;;;;6.30;2.53;;;17.70;1.00;;;;;;8400385;28;20192;-61
2023/10/14 01:53:42;;;;;;;5.47;2.60;;;17.80;1.00;;;;;;8399272;28;20204;-64
2023/10/14 01:57:45;;;;;;;8.53;2.47;;;17.90;1.00;;;;;;8402212;28;20207;-65
2023/10/14 02:01:47;;;;;;;4.97;2.20;;;18.10;1.00;;;;;;8402442;28;20296;-66
2023/10/14 02:05:51;;;;;;;4.60;2.63;;;18.10;1.00;;;;;;8400616;28;20184;-64
2023/10/14 02:09:55;;;;;;;5.83;2.33;;;18.30;1.00;;;;;;8401418;28;20177;-65
2023/10/14 02:13:56;;;;;;;6.87;2.77;;;18.40;1.00;;;;;;8401237;28;20185;-65
2023/10/14 02:17:57;;;;;;;9.03;2.20;;;18.40;1.00;;;;;;8401990;28;20208;-64
2023/10/14 02:21:58;;;;;;;8.40;2.47;;;18.40;1.00;;;;;;8406775;28;20180;-64
2023/10/14 02:26:00;;;;;;;10.03;2.43;;;18.40;1.00;;;;;;8402523;28;20180;-66
2023/10/14 02:30:01;;;;;;;5.93;2.47;;;18.50;1.00;;;;;;8403200;28;20184;-65
2023/10/14 02:34:24;;;;;;;6.93;2.40;;;18.50;1.00;;;;;;8400687;28;20186;-65
2023/10/14 02:38:24;;;;;;;8.03;2.50;;;18.60;1.00;;;;;;8404012;28;20206;-67
2023/10/14 02:42:25;;;;;;;4.00;2.20;;;18.80;1.00;;;;;;8401911;28;20184;-66
2023/10/14 02:46:26;;;;;;;10.47;2.93;;;19.00;1.00;;;;;;8406033;28;20185;-67
2023/10/14 02:50:27;;;;;;;5.23;2.33;;;19.10;1.00;;;;;;8421590;28;20239;-66
2023/10/14 02:54:33;;;;;;;4.33;1.93;;;19.10;1.00;;;;;;8406544;28;20196;-67
2023/10/14 02:58:33;;;;;;;7.20;2.43;;;19.10;1.00;;;;;;8403046;28;20254;-68
2023/10/14 03:03:12;;;;;;;6.80;2.50;;;19.10;1.00;;;;;;8400208;28;20204;-63
2023/10/14 03:07:02;;;;;;;6.10;2.27;;;19.10;1.00;;;;;;8395841;28;20303;-63
2023/10/14 03:11:15;;;;;;;4.90;2.53;;;19.10;1.00;;;;;;8400747;28;20176;-63
2023/10/14 03:15:21;;;;;;;6.07;2.57;;;19.10;1.00;;;;;;8398695;28;20284;-63
2023/10/14 03:19:25;;;;;;;5.93;2.30;;;19.10;1.00;;;;;;8399158;28;20242;-63
2023/10/14 03:23:27;;;;;;;4.63;2.20;;;19.10;1.00;;;;;;8398697;28;20405;-63
2023/10/14 03:27:32;;;;;;;7.73;2.87;;;19.10;1.00;;;;;;8400732;28;20447;-62
2023/10/14 03:31:35;;;;;;;4.97;2.03;;;19.10;1.00;;;;;;8398454;28;20190;-61
2023/10/14 03:35:37;;;;;;;10.10;2.67;;;19.10;1.00;;;;;;8399550;28;20204;-63
2023/10/14 03:39:41;;;;;;;3.47;2.27;;;19.10;1.00;;;;;;8399491;28;20248;-62
2023/10/14 03:48:08;;;;;;;5.63;2.17;;;19.10;1.00;;;;;;8397555;28;20188;-63
2023/10/14 03:52:12;;;;;;;5.17;2.33;;;19.10;1.00;;;;;;8396208;28;21806;-63
2023/10/14 03:56:13;;;;;;;4.50;2.50;;;19.00;1.00;;;;;;8400964;28;20234;-64
2023/10/14 04:00:27;;;;;;;4.70;2.47;;;19.00;1.00;;;;;;8404516;28;20751;-61
2023/10/14 04:04:29;;;;;;;6.43;2.27;;;19.10;1.00;;;;;;8402540;28;20189;-63
2023/10/14 04:08:39;;;;;;;5.37;2.33;;;19.10;1.00;;;;;;8409886;28;20218;-62
2023/10/14 04:12:52;;;;;;;4.87;2.73;;;19.20;1.00;;;;;;8402573;28;20192;-63
2023/10/14 04:21:36;;;;;;;6.50;3.03;;;19.10;1.00;;;;;;8402719;28;20345;-65
2023/10/14 04:25:42;;;;;;;6.87;3.47;;;18.90;1.00;;;;;;8406904;28;20189;-65
2023/10/14 04:29:53;;;;;;;4.70;2.33;;;18.80;1.00;;;;;;8406813;28;20192;-67
2023/10/14 04:33:54;;;;;;;4.73;2.40;;;18.60;1.00;;;;;;8395897;28;20181;-64
2023/10/14 04:37:57;;;;;;;3.47;2.27;;;18.50;1.00;;;;;;8404023;28;20624;-62
2023/10/14 04:42:22;;;;;;;4.57;2.83;;;18.40;1.00;;;;;;8403268;28;20284;-65
2023/10/14 04:46:32;;;;;;;6.53;2.97;;;18.30;1.00;;;;;;8401724;28;21131;-65
2023/10/14 04:50:38;;;;;;;5.53;2.60;;;18.20;1.00;;;;;;8406292;28;20168;-65
2023/10/14 04:54:51;;;;;;;7.87;3.23;;;18.20;1.00;;;;;;8401282;28;20204;-63
2023/10/14 04:58:52;;;;;;;6.40;3.10;;;18.10;1.00;;;;;;8403894;28;20234;-64
2023/10/14 05:02:59;;;;;;;6.70;2.93;;;18.20;1.00;;;;;;8403004;28;20184;-63
2023/10/14 05:07:04;;;;;;;6.40;2.97;;;18.10;1.00;;;;;;8401070;28;20173;-66
2023/10/14 05:11:05;;;;;;;10.60;2.87;;;18.10;1.00;;;;;;8400741;28;20245;-65
2023/10/14 05:15:22;;;;;;;5.13;2.57;;;18.00;1.00;;;;;;8401416;28;20410;-65
2023/10/14 05:19:24;;;;;;;4.17;3.17;;;18.00;1.00;;;;;;8402749;28;20180;-67
2023/10/14 05:23:30;;;;;;;7.03;3.17;;;17.90;1.00;;;;;;8400668;28;20173;-66
2023/10/14 05:27:46;;;;;;;5.73;3.00;;;17.80;1.00;;;;;;8401090;28;20188;-65
2023/10/14 05:31:47;;;;;;;8.47;3.07;;;17.80;1.00;;;;;;8403142;28;20185;-65
2023/10/14 05:35:48;;;;;;;7.47;2.93;;;17.70;1.00;;;;;;8396850;28;20531;-62
2023/10/14 05:39:54;;;;;;;7.17;3.67;;;17.60;1.00;;;;;;8415899;28;20553;-62
2023/10/14 05:43:55;;;;;;;8.43;2.80;;;17.70;1.00;;;;;;8402559;28;20182;-66
2023/10/14 05:47:57;;;;;;;5.07;2.87;;;17.80;1.00;;;;;;8402807;28;20184;-65
2023/10/14 05:51:57;;;;;;;7.57;3.23;;;17.90;1.00;;;;;;8400848;28;20196;-68
2023/10/14 05:56:09;;;;;;;5.23;2.97;;;18.10;1.00;;;;;;8400931;28;20204;-69
2023/10/14 06:00:23;;;;;;;10.33;3.30;;;18.30;1.00;;;;;;8402878;28;20197;-66
2023/10/14 06:04:24;;;;;;;3.40;2.50;;;18.50;1.00;;;;;;8398782;28;20196;-68
2023/10/14 06:08:25;;;;;;;4.93;2.90;;;18.70;1.00;;;;;;8400454;28;20569;-66
2023/10/14 06:12:26;;;;;;;6.77;3.20;;;18.90;1.00;;;;;;8401862;28;20185;-68
2023/10/14 06:16:28;;;;;;;6.17;2.80;;;19.10;1.00;;;;;;8402493;28;20315;-67
2023/10/14 06:20:30;;;;;;;9.53;3.40;;;19.30;1.00;;;;;;8404195;28;20236;-65
2023/10/14 06:24:33;;;;;;;7.97;3.40;;;19.50;1.00;;;;;;8404905;28;20187;-68
2023/10/14 06:28:34;;;;;;;7.13;3.37;;;19.70;1.00;;;;;;8403321;28;20172;-67
2023/10/14 06:32:35;;;;;;;6.90;3.00;;;19.80;1.00;;;;;;8415895;27;20186;-68
2023/10/14 06:36:36;;;;;;;6.80;3.20;;;19.80;1.00;;;;;;8404464;28;20211;-70
2023/10/14 06:40:37;;;;;;;6.30;3.43;;;19.90;1.00;;;;;;8406506;28;20181;-68
2023/10/14 06:44:44;;;;;;;7.03;3.17;;;19.90;1.00;;;;;;8403831;28;20348;-69
2023/10/14 06:48:52;;;;;;;8.67;3.40;;;19.90;1.00;;;;;;8398533;28;20180;-69
2023/10/14 06:53:07;;;;;;;5.07;2.90;;;20.00;1.00;;;;;;8403241;28;20223;-67
2023/10/14 06:57:08;;;;;;;6.47;2.90;;;20.10;1.00;;;;;;8412523;28;20222;-69
2023/10/14 07:01:09;;;;;;;8.37;3.07;;;20.20;1.00;;;;;;8399849;28;20203;-70
2023/10/14 07:05:10;;;;;;;5.33;3.07;;;20.50;1.00;;;;;;8399573;28;20275;-66
2023/10/14 07:09:17;;;;;;;6.97;2.90;;;20.60;1.00;;;;;;8397308;28;20466;-66
2023/10/14 07:13:19;;;;;;;6.70;3.30;;;20.60;1.00;;;;;;8392756;28;20189;-67
2023/10/14 07:17:22;;;;;;;6.87;3.03;;;20.50;1.00;;;;;;8399330;28;20208;-66
2023/10/14 07:21:23;;;;;;;6.13;2.90;;;20.50;1.00;;;;;;8396938;28;20199;-69
2023/10/14 07:25:25;;;;;;;8.13;3.23;;;20.40;1.00;;;;;;8399380;28;20267;-67
2023/10/14 07:29:27;;;;;;;5.13;2.90;;;20.30;1.00;;;;;;8398357;28;20203;-67
2023/10/14 07:33:29;;;;;;;8.13;3.30;;;20.30;1.00;;;;;;8406196;28;20172;-67
2023/10/14 07:37:30;;;;;;;8.83;3.13;;;20.30;1.00;;;;;;8406234;28;20212;-67
2023/10/14 07:41:31;;;;;;;6.37;3.60;;;20.40;1.00;;;;;;8407872;28;20267;-68
2023/10/14 07:45:36;;;;;;;5.87;2.80;;;20.70;1.00;;;;;;8404875;28;20188;-68
2023/10/14 07:49:38;;;;;;;8.20;3.20;;;20.90;1.00;;;;;;8406068;28;20244;-71
2023/10/14 07:53:41;;;;;;;7.07;3.60;;;21.10;1.00;;;;;;8404587;28;20204;-69
2023/10/14 07:57:46;;;;;;;7.10;3.17;;;21.40;1.00;;;;;;8404995;28;20208;-68
2023/10/14 08:01:47;;;;;;;7.30;3.27;;;21.60;1.00;;;;;;8398149;28;20461;-70
2023/10/14 08:05:51;;;;;;;10.30;3.73;;;21.70;1.00;;;;;;8407704;28;20189;-70
2023/10/14 08:09:52;;;;;;;6.33;3.13;;;21.90;1.00;;;;;;8406633;28;20444;-71
2023/10/14 08:13:54;;;;;;;7.13;3.13;;;22.10;1.00;;;;;;8404307;28;20184;-65
2023/10/14 08:17:58;;;;;;;12.70;3.20;;;22.40;1.00;;;;;;8393176;28;20197;-70
2023/10/14 08:21:58;;;;;;;5.47;2.97;;;22.60;1.00;;;;;;8405036;28;20219;-68
2023/10/14 08:25:59;;;;;;;6.53;3.10;;;22.80;1.00;;;;;;8405162;28;20184;-69
2023/10/14 08:30:10;;;;;;;11.27;3.33;;;23.00;1.00;;;;;;8404867;28;20210;-69
2023/10/14 08:34:10;;;;;;;6.53;3.47;;;23.20;1.00;;;;;;8409473;28;20181;-66
2023/10/14 08:38:19;;;;;;;5.73;3.53;;;23.50;1.00;;;;;;8404964;28;20281;-67
2023/10/14 08:42:23;;;;;;;10.17;3.77;;;23.20;99.90;;;;;;8404806;28;20264;-66
2023/10/14 08:46:35;;;;;;;6.73;3.30;;;22.90;1.00;;;;;;8403770;28;20221;-68
2023/10/14 08:50:39;;;;;;;7.00;3.37;;;22.40;1.00;;;;;;8405190;28;20466;-66
2023/10/14 08:54:42;;;;;;;8.20;3.40;;;22.00;99.90;;;;;;8404496;28;20461;-68
2023/10/14 08:58:42;;;;;;;8.00;3.20;;;21.70;1.00;;;;;;8397166;28;20212;-68
2023/10/14 09:02:44;;;;;;;8.67;4.23;;;21.20;1.00;;;;;;8405337;28;20808;-67
2023/10/14 09:06:46;;;;;;;6.53;3.57;;;20.80;1.00;;;;;;8401978;28;20285;-69
2023/10/14 09:10:52;;;;;;;5.63;3.60;;;20.40;1.00;;;;;;8407553;28;20185;-70
2023/10/14 09:14:53;;;;;;;7.17;2.93;;;20.00;1.00;;;;;;8404770;28;20245;-68
2023/10/14 09:18:57;;;;;;;8.07;2.67;;;19.80;1.00;;;;;;8406513;28;20572;-70
2023/10/14 09:23:11;;;;;;;7.20;3.17;;;19.50;1.00;;;;;;8398801;28;20176;-66
2023/10/14 09:27:13;;;;;;;3.93;2.77;;;19.30;1.00;;;;;;8402661;28;20195;-68
2023/10/14 09:31:13;;;;;;;4.90;2.50;;;19.10;1.00;;;;;;8396322;28;20183;-68
2023/10/14 09:35:15;;;;;;;10.57;3.30;;;18.70;1.00;;;;;;8406758;27;20228;-69
2023/10/14 09:39:24;;;;;;;8.33;2.90;;;18.30;1.00;;;;;;8403955;28;20184;-68
2023/10/14 09:43:27;;;;;;;6.67;3.00;;;17.90;1.00;;;;;;8400605;28;20180;-72
2023/10/14 09:47:29;;;;;;;5.00;3.50;;;17.40;1.00;;;;;;8398079;28;20261;-69
2023/10/14 09:51:32;;;;;;;4.57;3.23;;;17.10;99.90;;;;;;8408809;28;20190;-70
2023/10/14 09:55:33;;;;;;;5.13;3.17;;;16.90;99.90;;;;;;8410633;28;20201;-68
2023/10/14 09:59:37;;;;;;;6.37;3.27;;;16.60;1.00;;;;;;8407280;28;20249;-68
2023/10/14 10:03:49;;;;;;;6.73;4.43;;;16.30;49.00;;;;;;8409367;28;20271;-68
2023/10/14 10:08:17;;;;;;;9.23;4.57;;;16.00;1.00;;;;;;8408873;28;20189;-67
2023/10/14 10:12:20;;;;;;;4.40;3.57;;;15.80;71.60;;;;;;8401318;28;20264;-69
2023/10/14 10:16:22;;;;;;;6.43;2.60;;;15.60;99.90;;;;;;8405159;28;20292;-65
2023/10/14 10:20:40;;;;;;;5.40;2.80;;;15.50;99.90;;;;;;8410560;28;20180;-66
2023/10/14 10:24:53;;;;;;;2.87;1.53;;;15.40;99.90;;;;;;8399490;28;20181;-68
2023/10/14 10:28:54;;;;;;;1.10;0.50;;;15.10;99.90;;;;;;8401733;28;20183;-64
2023/10/14 10:33:13;;;;;;;2.13;0.77;;;14.50;99.90;;;;;;8400204;28;20177;-68
2023/10/14 10:37:18;;;;;;;1.20;0.43;;;14.20;99.90;;;;;;8401815;28;20243;-66
2023/10/14 10:41:19;;;;;;;2.20;0.57;;;13.90;99.90;;;;;;8403980;28;20198;-68
2023/10/14 10:45:23;;;;;;;0.70;0.50;;;13.60;99.90;;;;;;8406166;28;20267;-63
2023/10/14 10:49:49;;;;;;;1.80;0.53;;;13.30;99.90;;;;;;8383748;28;20181;-68
2023/10/14 10:53:52;;;;;;;1.40;0.73;;;13.10;99.90;;;;;;8404842;28;20240;-68
2023/10/14 10:58:00;;;;;;;2.50;0.83;;;12.90;99.90;;;;;;8406914;28;20291;-67
2023/10/14 11:02:02;;;;;;;2.63;0.83;;;12.80;99.90;;;;;;8409416;28;20198;-66
2023/10/14 11:06:04;;;;;;;2.70;1.10;;;12.70;99.90;;;;;;8417936;28;20263;-69
2023/10/14 11:10:05;;;;;;;4.30;0.70;;;12.70;99.90;;;;;;8416399;28;20204;-71
2023/10/14 11:14:17;;;;;;;4.57;1.30;;;12.70;99.90;;;;;;8432471;28;20173;-68
2023/10/14 11:18:18;;;;;;;1.97;1.07;;;12.80;99.90;;;;;;8408506;28;20241;-68
2023/10/14 11:22:20;;;;;;;1.97;0.93;;;12.90;99.90;;;;;;8412623;28;20184;-69
2023/10/14 11:26:23;;;;;;;1.23;0.80;;;13.20;99.90;;;;;;8406795;28;20195;-67
2023/10/14 11:30:28;;;;;;;1.83;0.60;;;13.40;99.90;;;;;;8415085;28;20471;-65
2023/10/14 11:34:35;;;;;;;1.90;0.43;;;13.50;99.90;;;;;;8406076;28;20178;-63
2023/10/14 11:38:43;;;;;;;2.57;1.07;;;13.60;99.90;;;;;;8408374;28;20177;-63
2023/10/14 11:42:43;;;;;;;2.83;0.70;;;13.70;99.90;;;;;;8396699;28;20184;-67
2023/10/14 11:46:45;;;;;;;2.73;0.90;;;13.90;99.90;;;;;;8405410;28;20283;-66
2023/10/14 11:50:47;;;;;;;3.73;0.60;;;14.20;99.90;;;;;;8406648;28;20188;-67
2023/10/14 11:54:52;;;;;;;2.33;1.10;;;14.10;99.90;;;;;;8405129;28;20312;-65
2023/10/14 11:58:53;;;;;;;2.73;0.70;;;13.90;1.00;;;;;;8404631;28;20208;-66
2023/10/14 12:02:55;;;;;;;2.77;0.73;;;13.90;99.90;;;;;;8405403;28;20184;-68
2023/10/14 12:06:56;;;;;;;3.40;0.80;;;13.90;99.90;;;;;;8383900;28;20236;-67
2023/10/14 12:11:03;;;;;;;2.93;1.03;;;13.90;99.90;;;;;;8404452;28;20188;-66
2023/10/14 12:15:06;;;;;;;2.57;1.30;;;13.90;99.90;;;;;;8405934;28;20200;-64
2023/10/14 12:19:07;;;;;;;1.40;0.77;;;13.70;99.90;;;;;;8406763;28;20185;-65
2023/10/14 12:23:08;;;;;;;3.90;0.90;;;13.70;99.90;;;;;;8404721;28;20200;-68
2023/10/14 12:27:15;;;;;;;4.43;0.73;;;13.90;99.90;;;;;;8403176;28;20184;-66
2023/10/14 12:31:16;;;;;;;4.80;1.40;;;14.10;99.90;;;;;;8404567;28;20200;-64
2023/10/14 12:35:18;;;;;;;5.57;1.13;;;14.40;99.90;;;;;;8408840;28;20201;-65
2023/10/14 12:39:33;;;;;;;2.80;0.83;;;14.50;60.90;;;;;;8407025;28;20200;-66
2023/10/14 12:43:39;;;;;;;2.87;0.60;;;14.60;99.90;;;;;;8401065;28;20457;-68
2023/10/14 12:47:46;;;;;;;4.13;1.10;;;14.80;23.50;;;;;;8402577;28;20283;-65
2023/10/14 12:51:48;;;;;;;4.53;0.90;;;14.70;1.00;;;;;;8394930;28;20203;-63
2023/10/14 12:55:49;;;;;;;3.63;0.90;;;14.50;1.00;;;;;;8402975;28;20212;-65
2023/10/14 12:59:50;;;;;;;2.93;0.80;;;14.20;1.00;;;;;;8403218;28;20204;-64
2023/10/14 13:03:53;;;;;;;2.37;0.90;;;14.00;1.00;;;;;;8403225;28;20362;-63
2023/10/14 13:07:55;;;;;;;4.60;1.50;;;13.90;1.00;;;;;;8400889;28;20260;-64
2023/10/14 13:11:56;;;;;;;2.90;1.00;;;13.90;1.00;;;;;;8402903;28;20528;-65
2023/10/14 13:15:57;;;;;;;4.30;0.90;;;13.80;17.70;;;;;;8405578;28;20209;-65
2023/10/14 13:19:58;;;;;;;4.30;1.10;;;13.80;13.00;;;;;;8405075;28;20219;-63
2023/10/14 13:24:07;;;;;;;2.30;0.83;;;13.90;1.00;;;;;;8392906;28;20188;-65
2023/10/14 13:28:09;;;;;;;2.20;1.00;;;14.00;1.00;;;;;;8403303;28;20234;-66
2023/10/14 13:32:14;;;;;;;4.70;1.43;;;14.00;1.00;;;;;;8403165;28;20202;-63
2023/10/14 13:36:20;;;;;;;3.53;1.00;;;14.00;1.00;;;;;;8402758;28;20277;-63
2023/10/14 13:40:22;;;;;;;5.03;1.20;;;13.90;1.00;;;;;;8404191;28;20176;-64
2023/10/14 13:44:26;;;;;;;3.23;0.90;;;13.90;1.00;;;;;;8396496;28;20595;-65
2023/10/14 13:48:29;;;;;;;5.13;1.20;;;13.90;1.00;;;;;;8401858;28;20554;-68
2023/10/14 13:52:32;;;;;;;3.53;1.10;;;13.90;1.00;;;;;;8404768;28;20249;-66
2023/10/14 13:56:33;;;;;;;4.47;1.20;;;14.00;1.00;;;;;;8401976;28;20211;-65
2023/10/14 14:00:38;;;;;;;5.13;1.40;;;14.10;1.00;;;;;;8400966;28;20449;-68
2023/10/14 14:04:39;;;;;;;3.53;1.30;;;14.20;1.00;;;;;;8402688;28;20230;-62
2023/10/14 14:08:40;;;;;;;4.50;1.07;;;14.30;1.00;;;;;;8402057;28;20720;-66
2023/10/14 14:12:43;;;;;;;4.57;1.37;;;14.50;1.00;;;;;;8400132;28;20189;-66
2023/10/14 14:16:44;;;;;;;3.03;1.00;;;14.70;1.00;;;;;;8400803;28;20300;-64
2023/10/14 14:20:47;;;;;;;4.90;1.50;;;14.70;1.00;;;;;;8402337;28;20176;-66
2023/10/14 14:24:48;;;;;;;4.93;1.33;;;14.50;1.00;;;;;;8399365;28;20181;-67
2023/10/14 14:28:49;;;;;;;7.10;1.67;;;14.40;1.00;;;;;;8400818;28;20208;-67
2023/10/14 14:32:51;;;;;;;4.40;1.17;;;14.40;1.00;;;;;;8401064;28;20177;-66
2023/10/14 14:36:51;;;;;;;2.80;1.10;;;14.40;1.00;;;;;;8398199;28;20254;-64
2023/10/14 14:40:52;;;;;;;5.27;0.97;;;14.40;1.00;;;;;;8394361;28;20253;-66
2023/10/14 14:44:53;;;;;;;5.83;1.40;;;14.40;1.00;;;;;;8400588;28;20234;-65
2023/10/14 14:48:54;;;;;;;4.57;1.10;;;14.30;99.90;;;;;;8401842;28;20173;-65
2023/10/14 14:52:57;;;;;;;5.93;1.87;;;14.20;99.90;;;;;;8401103;28;20208;-66
2023/10/14 14:57:00;;;;;;;8.50;1.03;;;14.10;99.90;;;;;;8399280;28;20213;-64
2023/10/14 15:01:03;;;;;;;3.30;1.07;;;14.00;99.90;;;;;;8400904;28;20269;-68
2023/10/14 15:05:07;;;;;;;1.97;1.17;;;13.90;99.90;;;;;;8400371;28;20222;-67
2023/10/14 15:09:14;;;;;;;4.20;0.87;;;13.80;99.90;;;;;;8401013;28;20403;-69
2023/10/14 15:13:17;;;;;;;3.40;0.90;;;13.80;99.90;;;;;;8396861;28;20188;-65
2023/10/14 15:17:19;;;;;;;6.00;1.10;;;13.70;99.90;;;;;;8399628;28;20196;-65
2023/10/14 15:21:20;;;;;;;5.00;1.17;;;13.60;1.00;;;;;;8400620;28;20192;-64
2023/10/14 15:25:21;;;;;;;2.73;1.10;;;13.50;1.00;;;;;;8400834;28;20181;-65
2023/10/14 15:29:22;;;;;;;2.83;0.90;;;13.40;1.00;;;;;;8396773;28;20185;-66
2023/10/14 15:33:23;;;;;;;3.77;0.97;;;13.20;1.00;;;;;;8399455;28;20318;-64
2023/10/14 15:37:24;;;;;;;3.73;1.10;;;13.20;1.00;;;;;;8400861;28;20311;-65
2023/10/14 15:41:25;;;;;;;4.90;1.20;;;13.00;1.00;;;;;;8396632;28;20191;-65
2023/10/14 15:45:27;;;;;;;5.73;1.80;;;12.90;1.00;;;;;;8397573;28;20185;-65
2023/10/14 15:49:37;;;;;;;3.23;0.90;;;12.80;1.00;;;;;;8399703;28;20184;-66
2023/10/14 15:53:37;;;;;;;4.67;1.37;;;12.60;1.00;;;;;;8402554;28;20406;-64
2023/10/14 15:57:41;;;;;;;3.33;1.00;;;12.50;1.00;;;;;;8404031;28;20423;-65
2023/10/14 16:01:42;;;;;;;3.70;1.17;;;12.30;1.00;;;;;;8395152;28;20200;-65
2023/10/14 16:05:46;;;;;;;2.53;1.27;;;12.20;1.00;;;;;;8406638;28;20269;-64
2023/10/14 16:09:48;;;;;;;2.83;1.30;;;12.00;1.00;;;;;;8405314;28;20227;-66
2023/10/14 16:13:49;;;;;;;5.80;1.70;;;11.90;1.00;;;;;;8403148;28;20195;-66
2023/10/14 16:17:52;;;;;;;6.40;1.47;;;11.90;1.00;;;;;;8404021;28;20212;-66
2023/10/14 16:21:55;;;;;;;4.27;1.43;;;11.80;1.00;;;;;;8404524;28;20257;-69
2023/10/14 16:25:59;;;;;;;4.90;1.33;;;11.70;1.00;;;;;;8411156;28;20196;-65
2023/10/14 16:30:14;;;;;;;4.00;1.50;;;11.60;1.00;;;;;;8412888;28;20264;-67
2023/10/14 16:34:15;;;;;;;3.33;1.10;;;11.50;1.00;;;;;;8411969;28;20212;-68
2023/10/14 16:38:21;;;;;;;4.10;1.37;;;11.40;1.00;;;;;;8412085;28;20212;-68
2023/10/14 16:42:24;;;;;;;7.87;1.60;;;11.30;1.00;;;;;;8408257;28;20185;-65
2023/10/14 16:46:27;;;;;;;3.80;1.57;;;11.20;1.00;;;;;;8411905;28;20184;-66
2023/10/14 16:50:30;;;;;;;3.73;1.33;;;11.10;1.00;;;;;;8410606;28;20184;-65
2023/10/14 16:54:31;;;;;;;4.03;1.63;;;11.00;1.00;;;;;;8408042;28;20251;-65
2023/10/14 16:58:31;;;;;;;5.00;1.37;;;10.90;1.00;;;;;;8408420;28;20207;-68
2023/10/14 17:02:32;;;;;;;6.47;1.20;;;10.80;1.00;;;;;;8408622;28;20210;-68
2023/10/14 17:06:36;;;;;;;4.23;1.70;;;10.70;1.00;;;;;;8408798;28;20176;-66
2023/10/14 17:10:38;;;;;;;2.83;1.30;;;10.60;1.00;;;;;;8411718;28;20187;-69
2023/10/14 17:14:39;;;;;;;4.90;1.30;;;10.60;1.00;;;;;;8410651;28;20226;-67
2023/10/14 17:18:39;;;;;;;6.10;2.07;;;10.50;1.00;;;;;;8406881;28;20215;-69
2023/10/14 17:22:42;;;;;;;4.03;1.67;;;10.40;1.00;;;;;;8408278;28;20182;-68
2023/10/14 17:26:45;;;;;;;8.27;1.97;;;10.30;1.00;;;;;;8403697;28;20331;-68
2023/10/14 17:30:50;;;;;;;3.80;1.40;;;10.30;1.00;;;;;;8405772;28;20262;-63
2023/10/14 17:34:51;;;;;;;6.73;1.63;;;10.30;1.00;;;;;;8407338;28;20188;-68
2023/10/14 17:38:52;;;;;;;2.93;1.60;;;10.30;1.00;;;;;;8404168;28;20226;-65
2023/10/14 17:42:54;;;;;;;5.43;1.90;;;10.30;1.00;;;;;;8406333;28;20190;-69
2023/10/14 17:46:56;;;;;;;5.77;1.60;;;10.30;1.00;;;;;;8406766;28;20195;-71
2023/10/14 17:50:58;;;;;;;8.07;1.60;;;10.30;1.00;;;;;;8408801;28;20358;-70
2023/10/14 17:55:10;;;;;;;5.17;1.70;;;10.30;1.00;;;;;;8397495;28;20216;-70
2023/10/14 17:59:11;;;;;;;5.73;1.87;;;10.30;1.00;;;;;;8407776;28;20195;-68
2023/10/14 18:03:15;;;;;;;5.43;1.50;;;10.30;1.00;;;;;;8412348;28;20176;-68
2023/10/14 18:07:18;;;;;;;6.77;1.53;;;10.40;1.00;;;;;;8405164;28;20214;-68
2023/10/14 18:11:20;;;;;;;8.63;1.60;;;10.40;1.00;;;;;;8408370;28;20641;-66
2023/10/14 18:15:23;;;;;;;3.73;1.10;;;10.40;1.00;;;;;;8402615;28;20201;-66
2023/10/14 18:19:25;;;;;;;3.37;1.10;;;10.40;1.00;;;;;;8409033;28;20173;-67
2023/10/14 18:23:26;;;;;;;4.97;1.10;;;10.40;1.00;;;;;;8406424;28;20180;-70
2023/10/14 18:27:28;;;;;;;6.33;1.47;;;10.30;1.00;;;;;;8396029;28;20185;-66
2023/10/14 18:31:30;;;;;;;7.00;1.50;;;10.20;1.00;;;;;;8392994;28;20216;-68
2023/10/14 18:35:33;;;;;;;5.97;1.30;;;10.10;1.00;;;;;;8406596;28;20211;-69
2023/10/14 18:39:33;;;;;;;4.77;1.13;;;10.00;1.00;;;;;;8401801;28;20189;-63
2023/10/14 18:43:41;;;;;;;8.37;1.47;;;9.90;1.00;;;;;;8404356;28;20191;-64
2023/10/14 18:47:42;;;;;;;7.33;1.77;;;9.80;1.00;;;;;;8401180;28;20272;-68
2023/10/14 18:51:42;;;;;;;8.07;1.37;;;9.70;1.00;;;;;;8401147;28;20277;-67
2023/10/14 18:55:50;;;;;;;5.30;1.40;;;9.60;1.00;;;;;;8403848;28;20233;-67
2023/10/14 18:59:53;;;;;;;4.17;1.13;;;9.60;1.00;;;;;;8403690;28;20274;-67
2023/10/14 19:03:59;;;;;;;6.20;1.43;;;9.50;1.00;;;;;;8405915;28;20212;-66
2023/10/14 19:08:03;;;;;;;3.63;1.00;;;9.40;1.00;;;;;;8407427;28;20212;-68
2023/10/14 19:12:05;;;;;;;6.70;1.77;;;9.40;1.00;;;;;;8405411;28;20695;-69
2023/10/14 19:16:09;;;;;;;3.20;1.27;;;9.30;1.00;;;;;;8409377;28;20249;-68
2023/10/14 19:20:13;;;;;;;5.73;1.60;;;9.30;1.00;;;;;;8411193;28;20204;-67
2023/10/14 19:24:14;;;;;;;4.23;1.40;;;9.20;1.00;;;;;;8409779;28;20219;-68
2023/10/14 19:28:21;;;;;;;5.50;1.50;;;9.10;1.00;;;;;;8409842;28;20185;-66
2023/10/14 19:32:22;;;;;;;7.67;1.63;;;9.00;1.00;;;;;;8413822;28;20267;-68
2023/10/14 19:36:24;;;;;;;5.53;1.53;;;8.80;1.00;;;;;;8411675;28;20209;-68
2023/10/14 19:40:25;;;;;;;5.13;1.47;;;8.70;1.00;;;;;;8411390;28;20181;-67
2023/10/14 19:44:27;;;;;;;3.33;1.40;;;8.50;1.00;;;;;;8407466;28;20184;-67
2023/10/14 19:48:29;;;;;;;3.90;1.60;;;8.40;1.00;;;;;;8405322;28;20188;-68
2023/10/14 19:52:33;;;;;;;2.60;1.30;;;8.20;1.00;;;;;;8410426;28;20206;-62
2023/10/14 19:56:34;;;;;;;5.57;1.70;;;8.10;1.00;;;;;;8406893;28;20398;-61
2023/10/14 20:00:42;;;;;;;3.27;1.70;;;8.00;1.00;;;;;;8403051;28;20441;-61
2023/10/14 20:04:43;;;;;;;8.20;1.83;;;8.00;1.00;;;;;;8406575;28;20177;-62
2023/10/14 20:08:46;;;;;;;6.23;1.63;;;8.00;1.00;;;;;;8403323;28;20184;-62
2023/10/14 20:12:49;;;;;;;5.60;1.43;;;8.10;1.00;;;;;;8403609;28;20196;-64
2023/10/14 20:16:51;;;;;;;8.30;2.63;;;8.20;1.00;;;;;;8402048;28;20331;-64
2023/10/14 20:20:52;;;;;;;8.33;1.77;;;8.40;1.00;;;;;;8404691;28;20231;-63
2023/10/14 20:24:52;;;;;;;8.03;2.30;;;8.50;1.00;;;;;;8402690;28;20180;-64
2023/10/14 20:28:53;;;;;;;4.97;1.87;;;8.70;1.00;;;;;;8404760;28;20180;-63
2023/10/14 20:32:56;;;;;;;5.67;1.80;;;8.70;1.00;;;;;;8399647;28;20594;-64
2023/10/14 20:36:57;;;;;;;5.23;1.80;;;8.70;1.00;;;;;;8394768;28;20204;-61
2023/10/14 20:40:58;;;;;;;5.03;1.67;;;8.70;1.00;;;;;;8400096;28;20189;-64
2023/10/14 20:44:59;;;;;;;4.30;1.30;;;8.60;1.00;;;;;;8404654;28;20249;-62
2023/10/14 20:48:59;;;;;;;6.20;1.53;;;8.50;1.00;;;;;;8404842;28;20188;-61
2023/10/14 20:53:01;;;;;;;6.70;1.60;;;8.40;1.00;;;;;;8402325;28;20196;-62
2023/10/14 20:57:07;;;;;;;6.30;1.37;;;8.20;1.00;;;;;;8402394;28;20201;-63
2023/10/14 21:01:13;;;;;;;6.93;1.70;;;8.10;1.00;;;;;;8402327;28;20253;-63
2023/10/14 21:05:17;;;;;;;5.83;1.90;;;8.00;1.00;;;;;;8403771;28;20298;-61
2023/10/14 21:09:21;;;;;;;7.10;2.10;;;7.80;1.00;;;;;;8402275;28;20420;-62
2023/10/14 21:13:26;;;;;;;6.67;1.47;;;7.80;1.00;;;;;;8408044;28;20243;-65
2023/10/14 21:17:27;;;;;;;4.67;1.77;;;7.70;19.20;;;;;;8402729;28;20209;-61
2023/10/14 21:21:28;;;;;;;5.20;1.63;;;7.70;19.50;;;;;;8405511;28;20187;-61
2023/10/14 21:25:29;;;;;;;3.87;1.60;;;7.70;30.40;;;;;;8404009;28;20299;-63
2023/10/14 21:29:31;;;;;;;5.67;1.93;;;7.60;86.00;;;;;;8403057;28;20192;-63
2023/10/14 21:33:31;;;;;;;6.63;1.90;;;7.50;99.90;;;;;;8402458;28;20187;-62